Time;durP1;ratioP1;P1;durP2;ratioP2;P2;SDS_P1;SDS_P2;PMS_P1;PMS_P2;Temp;Humidity;BMP_temperature;BMP_pressure;BME280_temperature;BME280_humidity;BME280_pressure;Samples;Min_cycle;Max_cycle;Signal;HPM_P1;HPM_P2
2021/10/02 00:45:45;;;;;;;9.00;5.18;;;;;;;7.93;100.00;97707.59;4843250;29;20437;-79
2021/10/02 00:48:13;;;;;;;10.88;5.82;;;;;;;7.98;100.00;97695.91;4850459;29;20123;-78
2021/10/02 00:50:39;;;;;;;8.15;5.50;;;;;;;8.00;100.00;97696.44;4848868;29;20454;-79
2021/10/02 00:53:06;;;;;;;13.32;5.65;;;;;;;7.95;100.00;97686.53;4899554;23;20048;-85
2021/10/02 00:55:33;;;;;;;8.38;5.22;;;;;;;8.00;100.00;97694.53;4901188;29;20053;-83
2021/10/02 00:58:00;;;;;;;13.27;5.55;;;;;;;7.93;100.00;97696.00;4888181;29;20053;-83
2021/10/02 01:00:27;;;;;;;8.48;5.03;;;;;;;7.79;100.00;97681.72;4890366;29;20060;-85
2021/10/02 01:03:00;;;;;;;9.95;5.25;;;;;;;7.78;100.00;97675.53;4883059;29;20072;-83
2021/10/02 01:05:38;;;;;;;7.47;5.10;;;;;;;7.93;100.00;97698.69;4899184;29;20127;-84
2021/10/02 01:08:17;;;;;;;9.70;5.35;;;;;;;7.93;100.00;97687.91;4887828;29;20512;-85
2021/10/02 01:10:52;;;;;;;10.68;5.38;;;;;;;7.92;100.00;97684.41;4881899;29;20084;-85
2021/10/02 01:13:37;;;;;;;7.72;4.68;;;;;;;8.04;100.00;97686.66;4881347;29;20063;-86
2021/10/02 01:16:26;;;;;;;8.68;5.00;;;;;;;7.97;100.00;97694.34;4892175;29;20100;-84
2021/10/02 01:19:36;;;;;;;7.28;4.70;;;;;;;7.99;100.00;97695.66;4871898;29;20721;-85
2021/10/02 01:22:45;;;;;;;11.60;5.10;;;;;;;7.92;100.00;97679.03;4866272;29;20055;-85
2021/10/02 01:25:18;;;;;;;10.27;5.65;;;;;;;7.92;100.00;97689.81;4869926;29;20437;-84
2021/10/02 01:27:53;;;;;;;9.10;5.05;;;;;;;7.94;100.00;97671.47;4900701;29;20421;-83
2021/10/02 01:30:51;;;;;;;7.78;5.05;;;;;;;7.90;100.00;97677.72;4884743;29;20045;-84
2021/10/02 01:33:39;;;;;;;8.00;5.22;;;;;;;7.84;100.00;97678.94;4883052;29;20052;-85
2021/10/02 01:36:31;;;;;;;8.73;5.00;;;;;;;7.75;100.00;97676.09;4900544;29;20048;-85
2021/10/02 01:47:23;;;;;;;11.68;5.63;;;;;;;7.94;100.00;97666.09;4899233;29;20059;-84
2021/10/02 01:49:56;;;;;;;8.65;5.20;;;;;;;8.01;100.00;97671.06;4869648;29;20068;-86
2021/10/02 01:52:27;;;;;;;6.85;4.88;;;;;;;7.91;100.00;97669.38;4901688;29;20057;-86
2021/10/02 01:54:56;;;;;;;9.65;5.15;;;;;;;7.77;100.00;97652.34;4888571;29;20045;-87
2021/10/02 01:57:31;;;;;;;8.30;5.00;;;;;;;8.02;100.00;97668.09;4875735;29;20044;-86
2021/10/02 02:00:04;;;;;;;10.07;5.35;;;;;;;7.94;100.00;97678.75;4902939;29;20074;-84
2021/10/02 02:02:34;;;;;;;10.50;4.78;;;;;;;7.86;100.00;97679.44;4884543;29;20131;-86
2021/10/02 02:05:04;;;;;;;8.90;4.88;;;;;;;7.95;100.00;97673.06;4897284;29;20055;-84
2021/10/02 02:07:32;;;;;;;7.95;4.90;;;;;;;7.98;100.00;97669.78;4899641;29;20116;-85
2021/10/02 02:10:01;;;;;;;12.20;5.10;;;;;;;8.04;100.00;97673.19;4882522;29;20070;-86
2021/10/02 02:12:32;;;;;;;10.02;5.38;;;;;;;8.07;100.00;97667.19;4898327;29;20477;-85
2021/10/02 02:15:05;;;;;;;9.52;5.10;;;;;;;8.00;100.00;97672.97;4902767;29;20044;-84
2021/10/02 02:17:36;;;;;;;7.10;4.55;;;;;;;8.01;100.00;97662.97;4872622;29;20049;-86
2021/10/02 02:20:05;;;;;;;6.78;4.43;;;;;;;8.01;100.00;97665.69;4903165;29;20049;-85
2021/10/02 02:22:32;;;;;;;7.97;4.15;;;;;;;8.15;100.00;97663.81;4914294;29;20048;-82
2021/10/02 02:24:59;;;;;;;10.43;4.95;;;;;;;8.09;100.00;97670.38;4901969;29;20052;-84
2021/10/02 02:27:28;;;;;;;7.97;5.10;;;;;;;7.96;100.00;97660.38;4916687;29;20039;-83
2021/10/02 02:29:55;;;;;;;7.85;5.22;;;;;;;7.92;100.00;97662.84;4884042;29;20054;-85
2021/10/02 02:32:23;;;;;;;10.85;5.20;;;;;;;8.07;100.00;97677.97;4916680;29;20048;-84
2021/10/02 02:34:50;;;;;;;10.20;4.78;;;;;;;8.04;100.00;97671.28;4896069;29;20108;-85
2021/10/02 02:37:17;;;;;;;12.18;5.70;;;;;;;7.99;100.00;97673.28;4913976;29;20059;-85
2021/10/02 02:39:44;;;;;;;9.40;5.53;;;;;;;8.10;100.00;97678.16;4890689;29;20072;-85
2021/10/02 02:42:10;;;;;;;8.68;5.32;;;;;;;8.10;100.00;97669.31;4885051;29;20083;-84
2021/10/02 02:44:37;;;;;;;13.70;5.80;;;;;;;8.07;100.00;97665.31;4870085;29;20052;-83
2021/10/02 02:47:15;;;;;;;12.43;5.93;;;;;;;8.21;100.00;97683.41;4899782;29;20059;-85
2021/10/02 02:49:50;;;;;;;9.40;5.60;;;;;;;8.23;100.00;97676.59;4885062;29;20052;-82
2021/10/02 02:52:21;;;;;;;8.63;5.22;;;;;;;8.26;100.00;97676.00;4868330;29;20597;-85
2021/10/02 02:55:18;;;;;;;10.85;5.68;;;;;;;8.25;100.00;97682.50;4867897;29;20052;-85
2021/10/02 02:57:53;;;;;;;7.78;5.25;;;;;;;8.24;100.00;97686.28;4867233;29;20045;-86
2021/10/02 03:00:22;;;;;;;7.55;4.72;;;;;;;8.24;100.00;97680.09;4882592;29;20056;-86
2021/10/02 03:02:54;;;;;;;8.70;4.88;;;;;;;8.28;100.00;97687.34;4899474;29;20594;-84
2021/10/02 03:05:23;;;;;;;9.32;4.78;;;;;;;8.36;100.00;97696.63;4901840;29;20131;-84
2021/10/02 03:07:59;;;;;;;10.10;5.60;;;;;;;8.22;100.00;97684.97;4872154;29;20060;-84
2021/10/02 03:10:29;;;;;;;9.40;5.47;;;;;;;8.35;100.00;97689.63;4870812;29;20371;-87
2021/10/02 03:13:02;;;;;;;10.43;5.97;;;;;;;8.34;100.00;97680.72;4866193;29;20059;-85
2021/10/02 03:15:30;;;;;;;10.20;6.00;;;;;;;8.41;100.00;97691.13;4899665;29;20060;-83
2021/10/02 03:17:57;;;;;;;11.00;6.15;;;;;;;8.44;100.00;97691.31;4884267;29;20049;-83
2021/10/02 03:20:25;;;;;;;9.20;5.43;;;;;;;8.45;100.00;97684.84;4899976;29;20050;-84
2021/10/02 03:22:55;;;;;;;11.45;6.57;;;;;;;8.70;100.00;97689.72;4898567;29;20068;-84
2021/10/02 03:25:27;;;;;;;13.15;6.43;;;;;;;9.14;100.00;97686.34;4882948;29;20424;-85
2021/10/02 03:27:55;;;;;;;14.98;8.18;;;;;;;9.79;100.00;97685.91;4898737;29;20048;-85
2021/10/02 03:30:22;;;;;;;12.85;7.60;;;;;;;10.25;100.00;97701.78;4865276;29;20143;-85
2021/10/02 03:32:49;;;;;;;16.17;8.00;;;;;;;10.80;100.00;97694.06;4896380;29;20059;-85
2021/10/02 03:35:20;;;;;;;12.80;7.10;;;;;;;11.26;100.00;97689.69;4880996;29;20457;-86
2021/10/02 03:37:49;;;;;;;8.60;5.25;;;;;;;11.32;100.00;97695.75;4880438;29;20041;-85
2021/10/02 03:40:17;;;;;;;10.68;4.90;;;;;;;11.46;100.00;97688.25;4896248;29;20136;-85
2021/10/02 03:42:53;;;;;;;7.95;4.10;;;;;;;11.50;100.00;97697.34;4897018;29;20132;-83
2021/10/02 03:45:22;;;;;;;10.13;4.45;;;;;;;11.56;100.00;97682.50;4900206;29;20063;-86
2021/10/02 03:47:49;;;;;;;6.78;3.90;;;;;;;11.65;100.00;97680.59;4898936;29;20053;-86
2021/10/02 03:50:16;;;;;;;9.77;4.07;;;;;;;11.82;100.00;97685.22;4881145;29;20529;-85
2021/10/02 03:52:43;;;;;;;8.95;3.80;;;;;;;12.10;100.00;97680.25;4880243;29;20052;-84
2021/10/02 03:55:12;;;;;;;5.60;3.30;;;;;;;12.26;100.00;97692.19;4897508;29;20441;-84
2021/10/02 03:57:39;;;;;;;4.95;3.10;;;;;;;12.34;100.00;97677.75;4880393;29;20044;-86
2021/10/02 04:00:08;;;;;;;4.68;3.33;;;;;;;12.47;100.00;97693.03;4897138;29;20048;-85
2021/10/02 04:02:35;;;;;;;6.93;3.75;;;;;;;12.56;100.00;97680.25;4880576;29;20104;-85
2021/10/02 04:05:02;;;;;;;8.07;3.35;;;;;;;12.70;100.00;97685.47;4879513;29;20153;-85
2021/10/02 04:07:29;;;;;;;7.30;3.20;;;;;;;12.84;100.00;97686.81;4880459;29;20460;-86
2021/10/02 04:09:56;;;;;;;7.63;3.10;;;;;;;12.79;100.00;97670.69;4879411;29;20695;-84
2021/10/02 04:12:22;;;;;;;6.57;3.05;;;;;;;12.74;100.00;97672.81;4878889;29;20053;-84
2021/10/02 04:14:57;;;;;;;10.10;3.70;;;;;;;12.74;100.00;97657.31;4896794;29;20053;-85
2021/10/02 04:17:34;;;;;;;6.13;2.92;;;;;;;12.76;100.00;97675.97;4880745;29;20044;-83
2021/10/02 04:20:04;;;;;;;7.68;3.30;;;;;;;12.66;100.00;97665.50;4884175;29;20056;-83
2021/10/02 04:22:30;;;;;;;11.55;3.10;;;;;;;12.73;100.00;97690.22;4901152;29;20064;-85
2021/10/02 04:24:57;;;;;;;12.25;3.60;;;;;;;12.69;100.00;97681.94;4867365;29;20055;-84
2021/10/02 04:27:24;;;;;;;7.30;3.17;;;;;;;12.68;100.00;97664.03;4881521;29;20076;-85
2021/10/02 04:29:50;;;;;;;6.80;3.42;;;;;;;12.77;100.00;97683.81;4902404;29;20053;-85
2021/10/02 04:32:19;;;;;;;9.68;3.80;;;;;;;12.67;100.00;97688.81;4880277;29;20048;-83
2021/10/02 04:34:50;;;;;;;6.30;3.50;;;;;;;12.61;100.00;97687.41;4880829;29;20047;-86
2021/10/02 04:37:19;;;;;;;9.75;3.60;;;;;;;12.38;100.00;97665.94;4896990;29;20148;-85
2021/10/02 04:39:46;;;;;;;7.53;3.78;;;;;;;12.31;100.00;97673.78;4864821;29;20048;-85
2021/10/02 04:42:13;;;;;;;6.20;3.53;;;;;;;12.03;100.00;97659.00;4896058;29;20090;-85
2021/10/02 04:44:40;;;;;;;8.73;4.00;;;;;;;11.93;100.00;97655.84;4880181;29;20048;-84
2021/10/02 04:47:06;;;;;;;6.50;3.90;;;;;;;11.87;100.00;97669.56;4881397;29;20056;-85
2021/10/02 04:49:33;;;;;;;6.32;3.70;;;;;;;11.94;100.00;97663.69;4881767;29;20588;-83
2021/10/02 04:52:00;;;;;;;7.35;3.85;;;;;;;12.07;100.00;97673.53;4900714;29;20055;-85
2021/10/02 04:54:28;;;;;;;7.85;4.20;;;;;;;12.21;100.00;97665.97;4886130;29;20044;-85
2021/10/02 04:56:59;;;;;;;6.28;4.03;;;;;;;12.31;100.00;97668.34;4884428;29;20096;-85
2021/10/02 04:59:29;;;;;;;6.20;4.03;;;;;;;12.23;100.00;97668.38;4898485;29;20052;-84
2021/10/02 05:01:55;;;;;;;8.95;4.40;;;;;;;12.19;100.00;97670.94;4901803;29;20124;-85
2021/10/02 05:04:22;;;;;;;10.05;4.30;;;;;;;12.18;100.00;97660.44;4917003;29;20074;-85
2021/10/02 05:06:49;;;;;;;8.73;4.28;;;;;;;12.38;100.00;97657.78;4909429;29;20066;-85
2021/10/02 05:09:16;;;;;;;11.38;4.47;;;;;;;12.48;100.00;97657.44;4888194;29;20059;-85
2021/10/02 05:11:43;;;;;;;9.70;4.38;;;;;;;12.71;100.00;97662.59;4883500;29;20140;-85
2021/10/02 05:14:09;;;;;;;6.35;4.10;;;;;;;12.76;100.00;97667.81;4899928;29;20541;-85
2021/10/02 05:16:36;;;;;;;7.05;3.78;;;;;;;12.71;100.00;97676.16;4887878;29;20075;-84
2021/10/02 05:19:03;;;;;;;5.68;3.72;;;;;;;12.64;100.00;97682.13;4906083;29;20044;-86
2021/10/02 05:21:35;;;;;;;8.15;3.78;;;;;;;12.54;100.00;97658.06;4899183;29;20047;-85
2021/10/02 05:24:02;;;;;;;7.65;4.07;;;;;;;12.41;100.00;97659.84;4913247;29;20071;-85
2021/10/02 05:26:30;;;;;;;7.55;4.60;;;;;;;12.17;100.00;97654.19;4881900;29;20087;-85
2021/10/02 05:28:57;;;;;;;9.02;4.70;;;;;;;12.28;100.00;97657.34;4881342;29;20143;-87
2021/10/02 05:31:24;;;;;;;9.57;4.45;;;;;;;12.23;100.00;97658.31;4913401;29;20053;-86
2021/10/02 05:33:50;;;;;;;12.15;4.15;;;;;;;12.09;100.00;97675.91;4897638;29;20053;-84
2021/10/02 05:36:17;;;;;;;8.15;4.03;;;;;;;12.12;100.00;97678.78;4898653;29;20057;-84
2021/10/02 05:38:44;;;;;;;8.13;4.32;;;;;;;12.14;100.00;97676.56;4883366;29;20048;-85
2021/10/02 05:41:12;;;;;;;9.60;4.63;;;;;;;12.29;100.00;97678.72;4916610;29;20049;-86
2021/10/02 05:43:39;;;;;;;7.63;4.63;;;;;;;12.24;100.00;97662.63;4869696;29;20052;-87
2021/10/02 05:46:37;;;;;;;7.60;3.90;;;;;;;12.37;100.00;97656.19;4882738;29;20068;-90
2021/10/02 05:50:21;;;;;;;9.40;4.10;;;;;;;12.86;100.00;97670.16;4848654;29;20168;-90
2021/10/02 05:53:04;;;;;;;13.20;4.55;;;;;;;13.15;100.00;97669.38;4888519;29;20077;-90
2021/10/02 05:55:40;;;;;;;7.43;4.03;;;;;;;13.22;100.00;97664.22;4880531;29;20052;-88
2021/10/02 05:58:09;;;;;;;6.55;3.83;;;;;;;13.39;100.00;97672.25;4902946;29;20130;-87
2021/10/02 06:00:36;;;;;;;5.93;3.65;;;;;;;13.57;100.00;97679.94;4868880;29;20061;-87
2021/10/02 06:03:12;;;;;;;9.23;3.80;;;;;;;13.67;100.00;97686.91;4867611;29;20108;-89
2021/10/02 06:06:16;;;;;;;4.68;2.80;;;;;;;13.74;100.00;97685.22;4866546;29;20524;-88
2021/10/02 06:08:49;;;;;;;5.93;3.50;;;;;;;13.68;100.00;97675.66;4877377;29;20049;-87
2021/10/02 06:11:16;;;;;;;6.20;3.53;;;;;;;13.92;100.00;97706.84;4885538;29;20052;-88
2021/10/02 06:13:44;;;;;;;8.32;3.55;;;;;;;13.99;100.00;97688.81;4848646;29;20336;-88
2021/10/02 06:16:14;;;;;;;5.68;3.13;;;;;;;14.06;100.00;97691.03;4850270;29;20053;-89
2021/10/02 06:18:46;;;;;;;10.07;3.45;;;;;;;14.19;100.00;97690.72;4864350;29;20502;-89
2021/10/02 06:21:16;;;;;;;6.32;3.30;;;;;;;14.29;100.00;97690.28;4883042;29;20056;-87
2021/10/02 06:23:43;;;;;;;7.38;3.00;;;;;;;14.15;100.00;97702.59;4867848;29;20492;-87
2021/10/02 06:26:13;;;;;;;4.97;2.80;;;;;;;14.33;100.00;97712.22;4866973;29;20049;-88
2021/10/02 06:28:40;;;;;;;6.03;2.95;;;;;;;14.25;100.00;97697.53;4881627;29;20048;-89
2021/10/02 06:31:11;;;;;;;6.07;3.03;;;;;;;14.36;100.00;97689.75;4864206;29;20053;-88
2021/10/02 06:34:07;;;;;;;6.85;2.80;;;;;;;14.35;100.00;97697.13;4865793;29;20474;-88
2021/10/02 06:36:47;;;;;;;7.32;2.78;;;;;;;14.52;100.00;97689.91;4878816;29;20060;-89
2021/10/02 06:47:14;;;;;;;6.57;2.58;;;;;;;14.86;100.00;97689.47;4803958;29;20078;-89
2021/10/02 06:50:25;;;;;;;5.28;2.38;;;;;;;15.18;100.00;97706.81;4797037;29;20047;-89
2021/10/02 06:57:46;;;;;;;;;;;;;;;;;;;;;
2021/10/02 07:01:12;;;;;;;4.20;2.30;;;;;;;15.30;100.00;97693.97;4758353;30;20048;-88
2021/10/02 07:05:18;;;;;;;;;;;;;;;;;;;;;
2021/10/02 07:08:46;;;;;;;5.43;2.33;;;;;;;15.57;100.00;97700.63;4734101;30;20044;-89
2021/10/02 07:12:00;;;;;;;5.28;2.60;;;;;;;15.43;100.00;97678.38;4726532;30;20060;-87
2021/10/02 07:15:17;;;;;;;4.43;2.60;;;;;;;15.68;100.00;97704.47;4826936;29;20062;-89
2021/10/02 07:18:08;;;;;;;7.40;2.33;;;;;;;15.68;100.00;97690.03;4836110;29;20048;-89
2021/10/02 07:20:41;;;;;;;4.32;2.63;;;;;;;15.59;100.00;97688.22;4829955;29;20054;-87
2021/10/02 07:23:10;;;;;;;6.68;2.60;;;;;;;15.66;100.00;97676.75;4820743;29;20046;-87
2021/10/02 07:25:37;;;;;;;4.07;2.38;;;;;;;15.81;100.00;97691.56;4825518;29;20061;-84
2021/10/02 07:28:25;;;;;;;5.80;2.60;;;;;;;15.95;100.00;97690.03;4849962;29;20125;-86
2021/10/02 07:31:48;;;;;;;6.30;2.33;;;;;;;15.84;100.00;97678.03;4830503;29;20261;-86
2021/10/02 07:34:19;;;;;;;6.50;2.42;;;;;;;15.98;100.00;97694.78;4812579;29;20507;-83
2021/10/02 07:36:48;;;;;;;5.50;2.55;;;;;;;16.00;100.00;97680.81;4824897;29;20404;-88
2021/10/02 07:39:15;;;;;;;6.97;2.78;;;;;;;15.97;100.00;97674.13;4809111;29;20134;-86
2021/10/02 07:41:45;;;;;;;6.22;2.70;;;;;;;16.23;100.00;97678.31;4823450;29;20141;-82
2021/10/02 07:44:33;;;;;;;6.75;2.58;;;;;;;16.29;100.00;97672.22;4823657;29;20126;-88
2021/10/02 07:47:06;;;;;;;5.35;2.60;;;;;;;16.56;100.00;97678.81;4808640;29;20056;-87
2021/10/02 07:49:42;;;;;;;10.40;2.65;;;;;;;16.62;100.00;97672.69;4801124;29;20042;-86
2021/10/02 07:52:12;;;;;;;6.82;2.20;;;;;;;16.58;100.00;97682.75;4812444;29;20619;-84
2021/10/02 07:54:41;;;;;;;4.32;2.47;;;;;;;16.97;100.00;97691.91;4827828;29;20070;-85
2021/10/02 07:57:12;;;;;;;5.35;2.53;;;;;;;16.87;100.00;97683.47;4842965;29;20057;-84
2021/10/02 07:59:41;;;;;;;4.63;2.30;;;;;;;16.87;100.00;97691.66;4835818;29;20493;-84
2021/10/02 08:02:09;;;;;;;5.38;2.45;;;;;;;17.00;100.00;97683.00;4847871;29;20072;-88
2021/10/02 08:04:44;;;;;;;5.88;2.35;;;;;;;16.93;100.00;97690.25;4887703;29;20143;-88
2021/10/02 08:07:14;;;;;;;3.67;2.03;;;;;;;17.10;100.00;97693.41;4886538;29;20055;-86
2021/10/02 08:10:24;;;;;;;;;;;;;;;;;;;;;
2021/10/02 08:13:06;;;;;;;6.65;2.60;;;;;;;16.78;100.00;97667.22;4886903;29;20044;-89
2021/10/02 08:15:48;;;;;;;4.07;2.03;;;;;;;16.77;100.00;97671.94;4896049;29;20076;-89
2021/10/02 08:19:13;;;;;;;4.20;2.90;;;;;;;16.82;100.00;97695.47;4897675;29;20059;-88
2021/10/02 08:21:59;;;;;;;5.53;3.45;;;;;;;16.86;100.00;97681.84;4859067;29;20326;-87
2021/10/02 08:24:39;;;;;;;8.45;3.50;;;;;;;16.92;100.00;97694.13;4879113;29;20049;-87
2021/10/02 08:27:13;;;;;;;8.67;3.63;;;;;;;17.31;100.00;97674.75;4860749;29;20116;-90
2021/10/02 08:29:40;;;;;;;9.60;3.42;;;;;;;17.40;100.00;97669.03;4860683;29;20100;-88
2021/10/02 08:32:11;;;;;;;9.73;2.80;;;;;;;17.74;100.00;97676.47;4870008;29;20082;-89
2021/10/02 08:46:50;;;;;;;9.25;1.90;;;;;;;18.83;100.00;97676.91;4910730;29;20139;-81
2021/10/02 08:49:43;;;;;;;5.45;1.70;;;;;;;19.04;100.00;97677.25;4887140;29;20052;-81
2021/10/02 08:52:10;;;;;;;5.13;1.60;;;;;;;19.07;100.00;97680.03;4907854;29;20203;-80
2021/10/02 08:54:40;;;;;;;5.20;3.28;;;;;;;19.17;100.00;97673.16;4893336;29;20074;-81
2021/10/02 08:57:24;;;;;;;3.65;1.40;;;;;;;19.44;100.00;97671.19;4899654;29;20052;-80
2021/10/02 08:59:53;;;;;;;3.13;1.40;;;;;;;19.39;100.00;97675.06;4896331;29;20063;-80
2021/10/02 09:02:21;;;;;;;5.60;1.63;;;;;;;19.30;100.00;97680.00;4890677;29;20497;-81
2021/10/02 09:04:49;;;;;;;2.85;1.30;;;;;;;19.69;99.07;97683.31;4918154;29;20051;-81
2021/10/02 09:07:17;;;;;;;6.03;1.40;;;;;;;19.64;99.22;97681.66;4914748;29;20028;-80
2021/10/02 09:09:44;;;;;;;3.42;1.60;;;;;;;19.75;100.00;97688.09;4905777;29;20063;-82
2021/10/02 09:12:11;;;;;;;6.03;1.60;;;;;;;20.18;96.50;97680.38;4911977;29;20064;-82
2021/10/02 09:14:38;;;;;;;2.13;1.40;;;;;;;20.23;90.39;97674.53;4902843;29;20033;-81
2021/10/02 09:17:05;;;;;;;5.35;1.92;;;;;;;20.36;91.32;97678.63;4892691;29;20076;-79
2021/10/02 09:19:33;;;;;;;3.33;1.20;;;;;;;20.21;91.38;97680.38;4877778;29;20079;-79
2021/10/02 09:22:07;;;;;;;4.70;1.60;;;;;;;20.12;94.39;97690.91;4893490;29;20051;-79
2021/10/02 09:24:42;;;;;;;4.85;1.60;;;;;;;20.40;94.08;97687.69;4906636;29;20058;-80
2021/10/02 09:27:21;;;;;;;4.15;1.60;;;;;;;20.58;79.47;97676.84;4906948;29;20055;-78
2021/10/02 09:29:54;;;;;;;3.22;1.30;;;;;;;20.77;71.26;97666.44;4904042;29;20047;-79
2021/10/02 09:32:32;;;;;;;5.30;1.50;;;;;;;20.77;76.13;97676.66;4903406;29;20108;-80
2021/10/02 09:35:03;;;;;;;5.53;1.60;;;;;;;20.82;65.47;97687.28;4904958;29;20055;-79
2021/10/02 09:37:35;;;;;;;4.90;1.70;;;;;;;20.58;67.86;97679.59;4887602;29;20108;-79
2021/10/02 09:40:24;;;;;;;4.53;1.73;;;;;;;20.41;64.67;97686.53;4901841;29;20501;-79
2021/10/02 09:42:56;;;;;;;3.38;1.40;;;;;;;20.29;68.45;97695.03;4903196;29;20048;-79
2021/10/02 09:45:35;;;;;;;5.07;1.50;;;;;;;20.31;64.03;97687.97;4893275;29;20082;-79
2021/10/02 09:48:05;;;;;;;5.70;1.30;;;;;;;20.80;65.17;97681.38;4892118;29;20576;-79
2021/10/02 09:50:35;;;;;;;3.88;1.40;;;;;;;21.35;63.58;97680.25;4886329;29;20044;-79
2021/10/02 09:53:10;;;;;;;4.10;1.23;;;;;;;21.79;57.62;97673.78;4886248;29;20064;-79
2021/10/02 09:55:39;;;;;;;3.90;1.50;;;;;;;21.56;56.36;97677.63;4886717;29;20548;-79
2021/10/02 09:58:09;;;;;;;2.75;1.42;;;;;;;21.83;56.82;97686.41;4884835;29;20100;-80
2021/10/02 10:00:45;;;;;;;2.60;1.20;;;;;;;22.74;54.44;97680.38;4896045;29;20142;-80
2021/10/02 10:03:15;;;;;;;4.63;1.38;;;;;;;24.02;48.71;97679.00;4896209;29;20044;-80
2021/10/02 10:05:48;;;;;;;7.63;1.23;;;;;;;24.11;48.39;97676.63;4892790;29;20052;-79
2021/10/02 10:08:22;;;;;;;3.78;1.42;;;;;;;24.55;46.38;97675.97;4910587;29;20056;-79
2021/10/02 10:10:49;;;;;;;2.05;1.30;;;;;;;23.64;47.56;97676.41;4891608;29;20063;-79
2021/10/02 10:13:20;;;;;;;2.28;1.35;;;;;;;22.60;48.95;97666.56;4867716;29;20091;-80
2021/10/02 10:15:49;;;;;;;3.78;1.30;;;;;;;21.72;54.84;97680.84;4868738;29;20165;-79
2021/10/02 10:18:25;;;;;;;2.90;1.45;;;;;;;21.53;54.56;97666.56;4881746;29;20236;-81
2021/10/02 10:20:54;;;;;;;3.20;1.30;;;;;;;21.46;54.38;97663.78;4868201;29;20143;-79
2021/10/02 10:23:32;;;;;;;2.97;1.65;;;;;;;20.27;54.73;97667.91;4884459;29;20524;-80
2021/10/02 10:26:04;;;;;;;3.60;1.70;;;;;;;20.29;57.03;97670.28;4869671;29;20076;-80
2021/10/02 10:28:44;;;;;;;4.00;1.40;;;;;;;20.29;60.94;97667.53;4883864;29;20175;-80
2021/10/02 10:31:14;;;;;;;2.92;1.50;;;;;;;20.19;57.41;97659.94;4887723;29;20115;-78
2021/10/02 10:33:44;;;;;;;4.85;1.77;;;;;;;22.18;50.80;97642.44;4888491;29;20568;-79
2021/10/02 10:36:12;;;;;;;4.70;1.55;;;;;;;22.53;49.18;97643.69;4887654;29;20111;-80
2021/10/02 10:38:41;;;;;;;5.82;1.55;;;;;;;22.52;49.62;97639.34;4879622;29;20040;-78
2021/10/02 10:41:13;;;;;;;3.00;1.35;;;;;;;22.85;47.21;97642.53;4902713;29;20076;-79
2021/10/02 10:43:40;;;;;;;3.83;1.65;;;;;;;22.46;49.21;97627.09;4921106;29;20048;-80
2021/10/02 10:46:09;;;;;;;5.13;1.83;;;;;;;22.97;49.26;97624.78;4904459;29;20186;-79
2021/10/02 10:48:36;;;;;;;5.60;1.42;;;;;;;24.48;46.71;97623.44;4903247;29;20071;-81
2021/10/02 10:51:09;;;;;;;2.88;1.75;;;;;;;23.76;44.70;97629.75;4903945;29;20046;-79
2021/10/02 10:53:38;;;;;;;2.58;1.95;;;;;;;23.33;46.85;97615.22;4901641;29;20059;-79
2021/10/02 10:56:07;;;;;;;5.07;1.73;;;;;;;23.93;45.39;97605.94;4901351;29;20051;-79
2021/10/02 10:58:34;;;;;;;4.03;1.70;;;;;;;24.75;45.42;97607.78;4905066;29;20289;-80
2021/10/02 11:01:09;;;;;;;4.13;1.60;;;;;;;26.44;42.24;97601.50;4917264;29;20055;-79
2021/10/02 11:03:45;;;;;;;3.33;1.80;;;;;;;27.25;40.48;97602.13;4873052;29;20076;-77
2021/10/02 11:06:12;;;;;;;3.85;1.58;;;;;;;26.24;40.57;97592.28;4897943;29;20096;-78
2021/10/02 11:08:48;;;;;;;2.63;1.50;;;;;;;27.14;39.97;97597.56;4874527;29;20133;-78
2021/10/02 11:11:16;;;;;;;5.32;1.55;;;;;;;28.82;38.46;97585.22;4886305;29;20056;-79
2021/10/02 11:13:45;;;;;;;10.02;1.75;;;;;;;28.61;37.21;97585.72;4900450;29;20052;-79
2021/10/02 11:16:39;;;;;;;6.95;1.70;;;;;;;29.10;35.54;97578.91;4900227;29;20060;-81
2021/10/02 11:19:28;;;;;;;4.53;1.75;;;;;;;27.39;37.56;97574.03;4884693;29;20497;-80
2021/10/02 11:21:59;;;;;;;3.75;1.88;;;;;;;27.64;37.43;97569.56;4884343;29;20052;-79
2021/10/02 11:24:41;;;;;;;3.53;1.83;;;;;;;27.77;37.56;97564.94;4895484;29;20064;-78
2021/10/02 11:27:20;;;;;;;2.55;1.70;;;;;;;28.79;35.67;97564.59;4866490;29;20115;-78
2021/10/02 11:29:47;;;;;;;5.70;1.80;;;;;;;29.50;34.34;97554.34;4865687;29;20075;-79
2021/10/02 11:32:17;;;;;;;4.05;1.77;;;;;;;29.13;36.20;97561.31;4867484;29;20052;-80
2021/10/02 11:35:20;;;;;;;2.92;1.77;;;;;;;29.19;34.94;97556.00;4866588;29;20052;-78
2021/10/02 11:37:49;;;;;;;5.03;1.80;;;;;;;28.90;35.88;97559.53;4866539;29;20048;-79
2021/10/02 11:40:35;;;;;;;3.28;1.73;;;;;;;28.83;35.91;97564.50;4871923;29;20051;-79
2021/10/02 11:43:14;;;;;;;5.50;1.55;;;;;;;28.69;36.54;97553.72;4889254;29;20060;-79
2021/10/02 11:45:54;;;;;;;3.38;1.75;;;;;;;30.34;34.20;97544.63;4893546;29;20065;-78
2021/10/02 11:48:39;;;;;;;5.28;2.20;;;;;;;31.86;32.99;97538.09;4908123;29;20163;-79
2021/10/02 11:51:28;;;;;;;3.53;1.70;;;;;;;30.59;32.20;97539.81;4885924;29;20311;-79
2021/10/02 11:54:07;;;;;;;2.50;1.50;;;;;;;31.41;31.78;97538.56;4886452;29;20089;-78
2021/10/02 11:56:35;;;;;;;2.97;1.80;;;;;;;31.32;33.04;97535.72;4892890;29;20055;-79
2021/10/02 11:59:04;;;;;;;2.40;1.60;;;;;;;30.67;32.33;97532.78;4889621;29;20132;-79
2021/10/02 12:01:42;;;;;;;2.83;2.03;;;;;;;32.34;32.60;97519.06;4897754;29;20675;-80
2021/10/02 12:04:12;;;;;;;2.55;1.63;;;;;;;29.89;34.83;97505.75;4897569;29;20420;-79
2021/10/02 12:06:45;;;;;;;3.70;1.80;;;;;;;30.40;35.59;97506.56;4897061;29;20079;-79
2021/10/02 12:09:17;;;;;;;2.03;1.73;;;;;;;31.01;32.67;97506.06;4914446;29;20523;-79
2021/10/02 12:11:49;;;;;;;5.75;1.75;;;;;;;30.17;34.15;97507.66;4891110;29;20060;-80
2021/10/02 12:14:19;;;;;;;3.45;2.00;;;;;;;30.45;34.57;97498.41;4884234;29;20270;-78
2021/10/02 12:16:52;;;;;;;5.35;1.88;;;;;;;30.50;33.85;97506.22;4885612;29;20355;-79
2021/10/02 12:19:22;;;;;;;4.10;1.90;;;;;;;30.60;34.62;97513.44;4885362;29;20049;-79
2021/10/02 12:22:03;;;;;;;3.15;1.88;;;;;;;30.30;34.46;97516.03;4869865;29;20136;-80
2021/10/02 12:24:39;;;;;;;6.57;2.00;;;;;;;31.42;34.48;97514.94;4869977;29;20063;-79
2021/10/02 12:27:15;;;;;;;3.50;1.80;;;;;;;30.58;33.09;97518.72;4901006;29;20048;-79
2021/10/02 12:29:44;;;;;;;5.20;1.90;;;;;;;30.76;33.26;97513.31;4870223;29;20489;-79
2021/10/02 12:32:14;;;;;;;3.17;2.00;;;;;;;29.78;33.75;97500.50;4868156;29;20144;-80
2021/10/02 12:34:44;;;;;;;2.72;2.00;;;;;;;30.20;33.23;97510.34;4882980;29;20044;-79
2021/10/02 12:37:16;;;;;;;2.67;1.95;;;;;;;30.04;34.57;97504.09;4892753;29;20052;-80
2021/10/02 12:39:55;;;;;;;3.63;1.67;;;;;;;30.20;34.13;97488.00;4895170;29;20079;-81
2021/10/02 12:42:35;;;;;;;4.28;2.00;;;;;;;30.22;34.47;97499.50;4903278;29;20067;-79
2021/10/02 12:45:07;;;;;;;3.67;2.00;;;;;;;32.07;31.93;97500.13;4903862;29;20083;-80
2021/10/02 12:47:33;;;;;;;3.20;2.00;;;;;;;29.78;34.82;97500.50;4886426;29;20075;-80
2021/10/02 12:50:05;;;;;;;3.97;1.88;;;;;;;30.30;34.11;97482.53;4885837;29;20140;-80
2021/10/02 12:52:32;;;;;;;3.75;1.80;;;;;;;30.20;34.16;97482.41;4886190;29;20142;-80
2021/10/02 12:55:00;;;;;;;2.30;1.63;;;;;;;31.83;31.55;97479.44;4910632;23;20466;-84
2021/10/02 12:57:33;;;;;;;4.35;1.60;;;;;;;30.59;32.57;97481.13;4886669;29;20036;-85
2021/10/02 13:00:10;;;;;;;2.63;1.70;;;;;;;31.14;32.39;97482.41;4886863;29;20071;-84
2021/10/02 13:02:44;;;;;;;4.50;1.92;;;;;;;31.26;31.81;97477.97;4884954;29;20060;-83
2021/10/02 13:05:17;;;;;;;4.55;1.80;;;;;;;30.75;32.26;97474.59;4877730;29;20045;-85
2021/10/02 13:07:52;;;;;;;6.75;1.98;;;;;;;32.35;30.55;97479.34;4895402;23;20055;-80
2021/10/02 13:10:21;;;;;;;3.08;1.75;;;;;;;31.70;30.09;97479.53;4885663;29;20159;-79
2021/10/02 13:12:58;;;;;;;2.65;1.80;;;;;;;30.71;29.69;97471.16;4886347;29;20147;-79
2021/10/02 13:15:29;;;;;;;4.32;1.65;;;;;;;30.49;30.33;97465.50;4878886;29;20068;-81
2021/10/02 13:18:14;;;;;;;3.15;1.60;;;;;;;30.20;30.86;97465.66;4863785;29;20509;-80
2021/10/02 13:20:41;;;;;;;2.50;1.75;;;;;;;29.83;32.03;97462.88;4865702;29;20047;-80
2021/10/02 13:23:28;;;;;;;4.30;1.80;;;;;;;31.77;29.79;97448.44;4866336;29;20048;-80